Terminal Aerodrome Forecast
Issued by NWS Glasgow, MT

Home | Current Version | Previous Version | Text Only | Print | Product List | Glossary On
Versions: 1 2 3 4 5 6 7 8 9 10 11 12 13
000
FTUS45 KGGW 261720
TAFGGW
TAF
KGGW 261720Z 2618/2718 13010KT P6SM SKC
     FM270200 09011KT P6SM FEW150
     FM270600 09015G23KT P6SM SCT110
     FM271600 13013KT P6SM BKN140=

USA.gov is the U.S. government's official web portal to all federal, state and local government web resources and services.